sensor_id;sensor_type;location;lat;lon;timestamp;P1;durP1;ratioP1;P2;durP2;ratioP2
35803;SDS011;21924;51.934;7.414;2023-06-10T10:30:02;7.25;;;2.70;;
35803;SDS011;21924;51.934;7.414;2023-06-10T10:32:56;9.50;;;3.30;;
35803;SDS011;21924;51.934;7.414;2023-06-10T10:36:06;10.73;;;3.38;;
35803;SDS011;21924;51.934;7.414;2023-06-10T13:36:14;9.18;;;3.50;;
35803;SDS011;21924;51.934;7.414;2023-06-10T13:38:59;14.30;;;3.42;;
35803;SDS011;21924;51.934;7.414;2023-06-10T13:41:43;7.05;;;3.05;;
35803;SDS011;21924;51.934;7.414;2023-06-10T13:44:27;4.68;;;3.17;;
35803;SDS011;21924;51.934;7.414;2023-06-10T13:47:15;6.28;;;3.45;;
35803;SDS011;21924;51.934;7.414;2023-06-10T13:49:59;5.95;;;3.22;;
35803;SDS011;21924;51.934;7.414;2023-06-10T13:52:43;5.22;;;3.10;;
35803;SDS011;21924;51.934;7.414;2023-06-10T13:55:27;5.75;;;3.40;;
35803;SDS011;21924;51.934;7.414;2023-06-10T13:58:12;6.78;;;3.60;;
35803;SDS011;21924;51.934;7.414;2023-06-10T14:00:56;5.80;;;2.90;;
35803;SDS011;21924;51.934;7.414;2023-06-10T14:03:42;5.53;;;2.58;;
35803;SDS011;21924;51.934;7.414;2023-06-10T14:06:26;11.75;;;3.20;;
35803;SDS011;21924;51.934;7.414;2023-06-10T14:09:12;6.00;;;3.00;;
35803;SDS011;21924;51.934;7.414;2023-06-10T14:11:56;6.18;;;3.10;;
35803;SDS011;21924;51.934;7.414;2023-06-10T14:14:40;7.20;;;3.13;;
35803;SDS011;21924;51.934;7.414;2023-06-10T14:17:25;4.72;;;2.83;;
35803;SDS011;21924;51.934;7.414;2023-06-10T14:20:09;8.70;;;3.30;;
35803;SDS011;21924;51.934;7.414;2023-06-10T14:22:54;4.30;;;3.13;;
35803;SDS011;21924;51.934;7.414;2023-06-10T14:25:38;11.23;;;3.33;;
35803;SDS011;21924;51.934;7.414;2023-06-10T14:28:23;7.20;;;3.00;;
35803;SDS011;21924;51.934;7.414;2023-06-10T14:31:07;4.70;;;3.03;;
35803;SDS011;21924;51.934;7.414;2023-06-10T14:33:52;10.43;;;3.50;;
35803;SDS011;21924;51.934;7.414;2023-06-10T14:36:36;6.68;;;3.17;;
35803;SDS011;21924;51.934;7.414;2023-06-10T14:39:20;6.68;;;3.38;;
35803;SDS011;21924;51.934;7.414;2023-06-10T14:42:05;4.78;;;2.95;;
35803;SDS011;21924;51.934;7.414;2023-06-10T14:44:50;3.25;;;2.50;;
35803;SDS011;21924;51.934;7.414;2023-06-10T14:47:34;6.00;;;2.55;;
35803;SDS011;21924;51.934;7.414;2023-06-10T14:50:19;4.95;;;2.75;;
35803;SDS011;21924;51.934;7.414;2023-06-10T14:53:03;9.52;;;3.13;;
35803;SDS011;21924;51.934;7.414;2023-06-10T14:55:47;6.57;;;3.08;;
35803;SDS011;21924;51.934;7.414;2023-06-10T14:58:32;4.40;;;3.05;;
35803;SDS011;21924;51.934;7.414;2023-06-10T15:01:16;9.18;;;3.50;;
35803;SDS011;21924;51.934;7.414;2023-06-10T15:04:03;4.38;;;2.65;;
35803;SDS011;21924;51.934;7.414;2023-06-10T15:06:47;4.30;;;3.13;;
35803;SDS011;21924;51.934;7.414;2023-06-10T15:09:32;6.35;;;3.20;;
35803;SDS011;21924;51.934;7.414;2023-06-10T15:12:17;7.10;;;3.00;;
35803;SDS011;21924;51.934;7.414;2023-06-10T15:15:02;4.65;;;3.33;;
35803;SDS011;21924;51.934;7.414;2023-06-10T15:17:46;6.20;;;3.33;;
35803;SDS011;21924;51.934;7.414;2023-06-10T15:25:59;8.30;;;3.50;;
35803;SDS011;21924;51.934;7.414;2023-06-10T15:28:43;4.78;;;3.47;;
35803;SDS011;21924;51.934;7.414;2023-06-10T15:31:27;8.30;;;4.30;;
35803;SDS011;21924;51.934;7.414;2023-06-10T15:34:11;7.70;;;4.00;;
35803;SDS011;21924;51.934;7.414;2023-06-10T15:42:24;8.00;;;3.90;;
35803;SDS011;21924;51.934;7.414;2023-06-10T15:45:08;6.32;;;3.42;;
35803;SDS011;21924;51.934;7.414;2023-06-10T17:42:51;5.90;;;4.32;;
35803;SDS011;21924;51.934;7.414;2023-06-10T17:45:35;5.40;;;3.45;;
35803;SDS011;21924;51.934;7.414;2023-06-10T17:51:04;10.80;;;3.80;;
35803;SDS011;21924;51.934;7.414;2023-06-10T17:53:48;7.43;;;4.00;;
35803;SDS011;21924;51.934;7.414;2023-06-10T17:56:32;8.23;;;3.70;;
35803;SDS011;21924;51.934;7.414;2023-06-10T17:59:16;5.90;;;3.67;;
35803;SDS011;21924;51.934;7.414;2023-06-10T18:02:01;8.83;;;3.87;;
35803;SDS011;21924;51.934;7.414;2023-06-10T18:04:45;5.47;;;3.88;;
35803;SDS011;21924;51.934;7.414;2023-06-10T18:07:29;5.45;;;3.70;;
35803;SDS011;21924;51.934;7.414;2023-06-10T18:10:14;9.85;;;3.78;;
35803;SDS011;21924;51.934;7.414;2023-06-10T18:12:58;7.60;;;4.40;;
35803;SDS011;21924;51.934;7.414;2023-06-10T18:15:44;7.85;;;4.82;;
35803;SDS011;21924;51.934;7.414;2023-06-10T18:18:29;7.17;;;4.30;;
35803;SDS011;21924;51.934;7.414;2023-06-10T18:21:14;7.80;;;3.97;;
35803;SDS011;21924;51.934;7.414;2023-06-10T18:23:58;8.00;;;4.38;;
35803;SDS011;21924;51.934;7.414;2023-06-10T18:26:43;9.18;;;4.53;;
35803;SDS011;21924;51.934;7.414;2023-06-10T18:29:27;10.77;;;5.20;;
35803;SDS011;21924;51.934;7.414;2023-06-10T18:32:11;9.68;;;4.95;;
35803;SDS011;21924;51.934;7.414;2023-06-10T18:34:56;7.05;;;4.70;;
35803;SDS011;21924;51.934;7.414;2023-06-10T18:37:40;7.43;;;4.63;;
35803;SDS011;21924;51.934;7.414;2023-06-10T18:40:24;9.75;;;4.57;;
35803;SDS011;21924;51.934;7.414;2023-06-10T18:43:11;10.90;;;4.53;;
35803;SDS011;21924;51.934;7.414;2023-06-10T18:45:56;6.82;;;4.20;;
35803;SDS011;21924;51.934;7.414;2023-06-10T18:48:42;6.45;;;4.50;;
35803;SDS011;21924;51.934;7.414;2023-06-10T18:51:28;14.07;;;4.78;;
35803;SDS011;21924;51.934;7.414;2023-06-10T18:54:12;8.60;;;4.70;;
35803;SDS011;21924;51.934;7.414;2023-06-10T18:56:57;6.82;;;4.60;;
35803;SDS011;21924;51.934;7.414;2023-06-10T18:59:41;10.23;;;4.68;;
35803;SDS011;21924;51.934;7.414;2023-06-10T19:02:26;9.35;;;5.35;;
35803;SDS011;21924;51.934;7.414;2023-06-10T19:05:12;8.68;;;4.80;;
35803;SDS011;21924;51.934;7.414;2023-06-10T19:07:57;10.73;;;5.38;;
35803;SDS011;21924;51.934;7.414;2023-06-10T19:10:42;10.30;;;5.40;;
35803;SDS011;21924;51.934;7.414;2023-06-10T19:13:27;7.38;;;4.63;;
35803;SDS011;21924;51.934;7.414;2023-06-10T19:16:11;7.68;;;4.38;;
35803;SDS011;21924;51.934;7.414;2023-06-10T19:18:55;17.25;;;5.10;;
35803;SDS011;21924;51.934;7.414;2023-06-10T19:21:39;10.02;;;4.55;;
35803;SDS011;21924;51.934;7.414;2023-06-10T19:24:24;8.13;;;5.38;;
35803;SDS011;21924;51.934;7.414;2023-06-10T19:27:08;16.30;;;4.82;;
35803;SDS011;21924;51.934;7.414;2023-06-10T19:29:52;14.77;;;5.63;;
35803;SDS011;21924;51.934;7.414;2023-06-10T19:32:37;11.20;;;5.43;;
35803;SDS011;21924;51.934;7.414;2023-06-10T19:35:21;8.10;;;5.30;;
35803;SDS011;21924;51.934;7.414;2023-06-10T19:38:05;9.55;;;5.03;;
35803;SDS011;21924;51.934;7.414;2023-06-10T19:40:50;9.05;;;4.60;;
35803;SDS011;21924;51.934;7.414;2023-06-10T19:43:34;8.50;;;5.32;;
35803;SDS011;21924;51.934;7.414;2023-06-10T19:46:18;12.02;;;5.45;;
35803;SDS011;21924;51.934;7.414;2023-06-10T19:49:03;8.20;;;4.88;;
35803;SDS011;21924;51.934;7.414;2023-06-10T19:51:48;10.23;;;6.03;;
35803;SDS011;21924;51.934;7.414;2023-06-10T19:54:33;9.80;;;5.35;;
35803;SDS011;21924;51.934;7.414;2023-06-10T19:57:18;11.35;;;5.53;;
35803;SDS011;21924;51.934;7.414;2023-06-10T20:00:02;11.98;;;5.65;;
35803;SDS011;21924;51.934;7.414;2023-06-10T20:02:47;7.35;;;5.03;;
35803;SDS011;21924;51.934;7.414;2023-06-10T20:05:32;10.68;;;6.25;;
35803;SDS011;21924;51.934;7.414;2023-06-10T20:08:16;13.45;;;6.18;;
35803;SDS011;21924;51.934;7.414;2023-06-10T20:11:01;9.77;;;5.30;;
35803;SDS011;21924;51.934;7.414;2023-06-10T20:13:45;9.38;;;4.43;;
35803;SDS011;21924;51.934;7.414;2023-06-10T20:16:29;9.05;;;5.28;;
35803;SDS011;21924;51.934;7.414;2023-06-10T20:19:14;8.13;;;5.25;;
35803;SDS011;21924;51.934;7.414;2023-06-10T20:21:58;14.13;;;6.07;;
35803;SDS011;21924;51.934;7.414;2023-06-10T20:24:43;8.40;;;5.25;;
35803;SDS011;21924;51.934;7.414;2023-06-10T20:27:27;8.85;;;5.38;;
35803;SDS011;21924;51.934;7.414;2023-06-10T20:30:12;9.30;;;5.47;;
35803;SDS011;21924;51.934;7.414;2023-06-10T20:32:57;11.40;;;6.18;;
35803;SDS011;21924;51.934;7.414;2023-06-10T20:35:45;7.00;;;5.15;;
35803;SDS011;21924;51.934;7.414;2023-06-10T20:38:29;8.63;;;5.47;;
35803;SDS011;21924;51.934;7.414;2023-06-10T20:41:14;7.72;;;5.13;;
35803;SDS011;21924;51.934;7.414;2023-06-10T20:46:44;7.53;;;5.50;;
35803;SDS011;21924;51.934;7.414;2023-06-10T20:49:28;14.45;;;6.32;;
35803;SDS011;21924;51.934;7.414;2023-06-10T20:52:13;11.32;;;5.20;;
35803;SDS011;21924;51.934;7.414;2023-06-10T20:54:57;9.23;;;5.53;;
35803;SDS011;21924;51.934;7.414;2023-06-10T20:57:41;11.10;;;5.88;;
35803;SDS011;21924;51.934;7.414;2023-06-10T21:00:26;12.27;;;5.78;;
35803;SDS011;21924;51.934;7.414;2023-06-10T21:03:10;8.68;;;5.95;;
35803;SDS011;21924;51.934;7.414;2023-06-10T21:05:54;9.45;;;5.63;;
35803;SDS011;21924;51.934;7.414;2023-06-10T21:08:39;10.05;;;5.93;;
35803;SDS011;21924;51.934;7.414;2023-06-10T21:11:24;12.77;;;6.77;;
35803;SDS011;21924;51.934;7.414;2023-06-10T21:14:09;10.40;;;5.77;;
35803;SDS011;21924;51.934;7.414;2023-06-10T21:16:53;10.90;;;5.55;;
35803;SDS011;21924;51.934;7.414;2023-06-10T21:19:37;9.40;;;5.20;;
35803;SDS011;21924;51.934;7.414;2023-06-10T21:22:22;10.98;;;6.57;;
35803;SDS011;21924;51.934;7.414;2023-06-10T21:25:06;11.10;;;6.03;;
35803;SDS011;21924;51.934;7.414;2023-06-10T21:27:51;8.48;;;5.85;;
35803;SDS011;21924;51.934;7.414;2023-06-10T21:30:35;8.20;;;5.40;;
35803;SDS011;21924;51.934;7.414;2023-06-10T21:33:19;9.93;;;5.70;;
35803;SDS011;21924;51.934;7.414;2023-06-10T21:36:05;8.80;;;5.80;;
35803;SDS011;21924;51.934;7.414;2023-06-10T21:38:50;11.37;;;6.13;;
35803;SDS011;21924;51.934;7.414;2023-06-10T21:41:34;10.98;;;5.22;;
35803;SDS011;21924;51.934;7.414;2023-06-10T21:44:18;8.50;;;6.18;;
35803;SDS011;21924;51.934;7.414;2023-06-10T21:47:02;11.00;;;5.38;;
35803;SDS011;21924;51.934;7.414;2023-06-10T21:49:47;7.78;;;5.20;;
35803;SDS011;21924;51.934;7.414;2023-06-10T21:52:32;11.35;;;5.82;;
35803;SDS011;21924;51.934;7.414;2023-06-10T21:55:16;7.38;;;5.28;;
35803;SDS011;21924;51.934;7.414;2023-06-10T21:58:00;11.68;;;6.43;;
35803;SDS011;21924;51.934;7.414;2023-06-10T22:00:45;7.82;;;5.15;;
35803;SDS011;21924;51.934;7.414;2023-06-10T22:03:29;7.80;;;4.93;;
35803;SDS011;21924;51.934;7.414;2023-06-10T22:06:14;8.88;;;5.68;;
35803;SDS011;21924;51.934;7.414;2023-06-10T22:08:58;12.63;;;6.15;;
35803;SDS011;21924;51.934;7.414;2023-06-10T22:11:43;8.52;;;5.70;;
35803;SDS011;21924;51.934;7.414;2023-06-10T22:17:13;9.02;;;6.10;;
35803;SDS011;21924;51.934;7.414;2023-06-10T22:19:57;10.43;;;6.10;;
35803;SDS011;21924;51.934;7.414;2023-06-10T22:22:41;10.45;;;5.20;;
35803;SDS011;21924;51.934;7.414;2023-06-10T22:25:25;9.35;;;6.00;;
35803;SDS011;21924;51.934;7.414;2023-06-10T22:28:10;10.88;;;6.20;;
35803;SDS011;21924;51.934;7.414;2023-06-10T22:30:54;11.38;;;6.15;;
35803;SDS011;21924;51.934;7.414;2023-06-10T22:33:38;11.50;;;5.57;;
35803;SDS011;21924;51.934;7.414;2023-06-10T22:36:23;10.55;;;5.53;;
35803;SDS011;21924;51.934;7.414;2023-06-10T22:39:07;7.55;;;5.03;;
35803;SDS011;21924;51.934;7.414;2023-06-10T22:41:55;11.20;;;4.88;;
35803;SDS011;21924;51.934;7.414;2023-06-10T22:44:39;7.53;;;5.70;;
35803;SDS011;21924;51.934;7.414;2023-06-10T22:47:24;11.10;;;5.20;;
35803;SDS011;21924;51.934;7.414;2023-06-10T22:50:08;15.57;;;4.90;;
35803;SDS011;21924;51.934;7.414;2023-06-10T22:52:52;14.05;;;5.78;;
35803;SDS011;21924;51.934;7.414;2023-06-10T22:55:37;14.75;;;5.25;;
35803;SDS011;21924;51.934;7.414;2023-06-10T22:58:21;10.77;;;6.28;;
35803;SDS011;21924;51.934;7.414;2023-06-10T23:01:06;11.60;;;5.55;;
35803;SDS011;21924;51.934;7.414;2023-06-10T23:03:50;10.32;;;5.35;;
35803;SDS011;21924;51.934;7.414;2023-06-10T23:06:34;6.53;;;4.88;;
35803;SDS011;21924;51.934;7.414;2023-06-10T23:09:19;11.07;;;5.38;;
35803;SDS011;21924;51.934;7.414;2023-06-10T23:12:03;7.88;;;5.40;;
35803;SDS011;21924;51.934;7.414;2023-06-10T23:14:47;9.07;;;5.88;;
35803;SDS011;21924;51.934;7.414;2023-06-10T23:17:32;9.20;;;5.35;;
35803;SDS011;21924;51.934;7.414;2023-06-10T23:20:16;9.55;;;5.75;;
35803;SDS011;21924;51.934;7.414;2023-06-10T23:23:03;8.95;;;5.38;;
35803;SDS011;21924;51.934;7.414;2023-06-10T23:25:47;8.15;;;5.70;;
35803;SDS011;21924;51.934;7.414;2023-06-10T23:28:32;9.15;;;6.25;;
35803;SDS011;21924;51.934;7.414;2023-06-10T23:31:17;8.93;;;5.70;;
35803;SDS011;21924;51.934;7.414;2023-06-10T23:34:01;9.35;;;5.03;;
35803;SDS011;21924;51.934;7.414;2023-06-10T23:36:46;8.15;;;5.18;;
35803;SDS011;21924;51.934;7.414;2023-06-10T23:39:30;10.07;;;5.13;;
35803;SDS011;21924;51.934;7.414;2023-06-10T23:42:14;6.63;;;4.90;;
35803;SDS011;21924;51.934;7.414;2023-06-10T23:45:00;14.35;;;5.63;;
35803;SDS011;21924;51.934;7.414;2023-06-10T23:47:44;9.65;;;5.70;;
35803;SDS011;21924;51.934;7.414;2023-06-10T23:50:29;9.90;;;5.07;;
35803;SDS011;21924;51.934;7.414;2023-06-10T23:53:14;10.60;;;5.67;;
35803;SDS011;21924;51.934;7.414;2023-06-10T23:55:58;10.32;;;5.40;;
35803;SDS011;21924;51.934;7.414;2023-06-10T23:58:43;12.32;;;6.63;;
